sensor_id;sensor_type;location;lat;lon;timestamp;P1;durP1;ratioP1;P2;durP2;ratioP2
6878;SDS011;3478;51.462;7.338;2022-07-30T00:04:56;4.30;;;3.90;;
6878;SDS011;3478;51.462;7.338;2022-07-30T00:09:58;4.20;;;3.90;;
6878;SDS011;3478;51.462;7.338;2022-07-30T00:15:00;6.70;;;4.03;;
6878;SDS011;3478;51.462;7.338;2022-07-30T00:20:04;5.97;;;5.00;;
6878;SDS011;3478;51.462;7.338;2022-07-30T00:25:06;6.10;;;5.40;;
6878;SDS011;3478;51.462;7.338;2022-07-30T00:30:09;4.37;;;3.53;;
6878;SDS011;3478;51.462;7.338;2022-07-30T00:35:13;4.60;;;4.20;;
6878;SDS011;3478;51.462;7.338;2022-07-30T00:40:15;5.33;;;4.90;;
6878;SDS011;3478;51.462;7.338;2022-07-30T00:45:18;6.60;;;5.90;;
6878;SDS011;3478;51.462;7.338;2022-07-30T00:50:21;8.90;;;5.20;;
6878;SDS011;3478;51.462;7.338;2022-07-30T00:55:23;4.87;;;4.47;;
6878;SDS011;3478;51.462;7.338;2022-07-30T01:00:25;4.60;;;4.30;;
6878;SDS011;3478;51.462;7.338;2022-07-30T01:05:29;4.67;;;4.43;;
6878;SDS011;3478;51.462;7.338;2022-07-30T01:10:31;6.40;;;5.80;;
6878;SDS011;3478;51.462;7.338;2022-07-30T01:15:33;6.10;;;4.33;;
6878;SDS011;3478;51.462;7.338;2022-07-30T01:20:37;5.93;;;5.53;;
6878;SDS011;3478;51.462;7.338;2022-07-30T01:25:54;7.57;;;5.13;;
6878;SDS011;3478;51.462;7.338;2022-07-30T01:31:00;9.57;;;6.47;;
6878;SDS011;3478;51.462;7.338;2022-07-30T01:36:04;7.00;;;4.57;;
6878;SDS011;3478;51.462;7.338;2022-07-30T01:41:13;7.30;;;6.57;;
6878;SDS011;3478;51.462;7.338;2022-07-30T01:46:15;6.70;;;6.00;;
6878;SDS011;3478;51.462;7.338;2022-07-30T01:51:18;5.13;;;4.63;;
6878;SDS011;3478;51.462;7.338;2022-07-30T01:56:22;5.97;;;5.47;;
6878;SDS011;3478;51.462;7.338;2022-07-30T02:01:28;7.10;;;6.40;;
6878;SDS011;3478;51.462;7.338;2022-07-30T02:06:31;7.37;;;6.23;;
6878;SDS011;3478;51.462;7.338;2022-07-30T02:11:40;7.60;;;6.90;;
6878;SDS011;3478;51.462;7.338;2022-07-30T02:17:02;6.57;;;5.77;;
6878;SDS011;3478;51.462;7.338;2022-07-30T02:22:07;10.20;;;7.57;;
6878;SDS011;3478;51.462;7.338;2022-07-30T02:27:15;6.87;;;6.27;;
6878;SDS011;3478;51.462;7.338;2022-07-30T02:32:21;7.40;;;6.67;;
6878;SDS011;3478;51.462;7.338;2022-07-30T02:37:25;10.90;;;6.13;;
6878;SDS011;3478;51.462;7.338;2022-07-30T02:42:29;7.23;;;6.63;;
6878;SDS011;3478;51.462;7.338;2022-07-30T02:47:33;10.57;;;7.83;;
6878;SDS011;3478;51.462;7.338;2022-07-30T02:52:37;6.57;;;5.93;;
6878;SDS011;3478;51.462;7.338;2022-07-30T02:57:43;7.37;;;5.73;;
6878;SDS011;3478;51.462;7.338;2022-07-30T03:02:47;6.70;;;6.07;;
6878;SDS011;3478;51.462;7.338;2022-07-30T03:07:49;13.10;;;6.83;;
6878;SDS011;3478;51.462;7.338;2022-07-30T03:12:54;5.97;;;5.57;;
6878;SDS011;3478;51.462;7.338;2022-07-30T03:17:58;6.67;;;6.03;;
6878;SDS011;3478;51.462;7.338;2022-07-30T03:23:01;9.40;;;6.03;;
6878;SDS011;3478;51.462;7.338;2022-07-30T03:28:05;9.47;;;6.23;;
6878;SDS011;3478;51.462;7.338;2022-07-30T03:33:08;7.03;;;6.10;;
6878;SDS011;3478;51.462;7.338;2022-07-30T03:38:12;7.57;;;6.87;;
6878;SDS011;3478;51.462;7.338;2022-07-30T03:43:16;7.03;;;6.43;;
6878;SDS011;3478;51.462;7.338;2022-07-30T03:48:19;8.13;;;7.43;;
6878;SDS011;3478;51.462;7.338;2022-07-30T03:53:22;5.80;;;5.43;;
6878;SDS011;3478;51.462;7.338;2022-07-30T03:58:28;6.57;;;5.97;;
6878;SDS011;3478;51.462;7.338;2022-07-30T04:03:31;7.60;;;7.00;;
6878;SDS011;3478;51.462;7.338;2022-07-30T04:08:34;8.83;;;8.07;;
6878;SDS011;3478;51.462;7.338;2022-07-30T04:13:37;6.60;;;6.00;;
6878;SDS011;3478;51.462;7.338;2022-07-30T04:18:41;9.00;;;7.13;;
6878;SDS011;3478;51.462;7.338;2022-07-30T04:23:47;9.60;;;8.60;;
6878;SDS011;3478;51.462;7.338;2022-07-30T04:28:53;9.77;;;8.97;;
6878;SDS011;3478;51.462;7.338;2022-07-30T04:33:55;10.10;;;9.00;;
6878;SDS011;3478;51.462;7.338;2022-07-30T04:38:57;13.07;;;9.97;;
6878;SDS011;3478;51.462;7.338;2022-07-30T04:44:01;8.53;;;7.80;;
6878;SDS011;3478;51.462;7.338;2022-07-30T04:49:03;9.80;;;8.50;;
6878;SDS011;3478;51.462;7.338;2022-07-30T04:54:06;11.23;;;9.77;;
6878;SDS011;3478;51.462;7.338;2022-07-30T04:59:12;10.23;;;9.23;;
6878;SDS011;3478;51.462;7.338;2022-07-30T05:04:16;9.03;;;8.13;;
6878;SDS011;3478;51.462;7.338;2022-07-30T05:09:19;11.13;;;8.17;;
6878;SDS011;3478;51.462;7.338;2022-07-30T05:14:23;9.43;;;8.63;;
6878;SDS011;3478;51.462;7.338;2022-07-30T05:19:25;14.17;;;11.63;;
6878;SDS011;3478;51.462;7.338;2022-07-30T05:24:27;12.60;;;10.80;;
6878;SDS011;3478;51.462;7.338;2022-07-30T05:29:31;12.43;;;9.97;;
6878;SDS011;3478;51.462;7.338;2022-07-30T05:34:32;11.00;;;9.93;;
6878;SDS011;3478;51.462;7.338;2022-07-30T05:39:34;12.30;;;11.00;;
6878;SDS011;3478;51.462;7.338;2022-07-30T05:44:38;12.93;;;11.53;;
6878;SDS011;3478;51.462;7.338;2022-07-30T05:49:39;17.23;;;11.30;;
6878;SDS011;3478;51.462;7.338;2022-07-30T05:54:41;20.13;;;13.07;;
6878;SDS011;3478;51.462;7.338;2022-07-30T05:59:45;16.87;;;14.83;;
6878;SDS011;3478;51.462;7.338;2022-07-30T06:04:46;20.87;;;14.70;;
6878;SDS011;3478;51.462;7.338;2022-07-30T06:09:48;21.00;;;15.30;;
6878;SDS011;3478;51.462;7.338;2022-07-30T06:14:52;19.37;;;15.50;;
6878;SDS011;3478;51.462;7.338;2022-07-30T06:19:54;28.33;;;18.00;;
6878;SDS011;3478;51.462;7.338;2022-07-30T06:24:56;27.33;;;18.70;;
6878;SDS011;3478;51.462;7.338;2022-07-30T06:29:59;28.07;;;18.00;;
6878;SDS011;3478;51.462;7.338;2022-07-30T06:35:01;39.20;;;21.93;;
6878;SDS011;3478;51.462;7.338;2022-07-30T06:40:04;42.67;;;24.70;;
6878;SDS011;3478;51.462;7.338;2022-07-30T06:45:09;38.40;;;24.93;;
6878;SDS011;3478;51.462;7.338;2022-07-30T06:50:11;40.57;;;26.80;;
6878;SDS011;3478;51.462;7.338;2022-07-30T06:55:13;52.77;;;27.87;;
6878;SDS011;3478;51.462;7.338;2022-07-30T07:00:16;54.47;;;32.17;;
6878;SDS011;3478;51.462;7.338;2022-07-30T07:05:19;50.40;;;34.40;;
6878;SDS011;3478;51.462;7.338;2022-07-30T07:10:22;47.07;;;33.23;;
6878;SDS011;3478;51.462;7.338;2022-07-30T07:15:26;52.37;;;32.93;;
6878;SDS011;3478;51.462;7.338;2022-07-30T07:20:28;56.53;;;34.87;;
6878;SDS011;3478;51.462;7.338;2022-07-30T07:25:30;55.67;;;37.60;;
6878;SDS011;3478;51.462;7.338;2022-07-30T07:30:33;65.33;;;40.93;;
6878;SDS011;3478;51.462;7.338;2022-07-30T07:35:35;58.93;;;40.63;;
6878;SDS011;3478;51.462;7.338;2022-07-30T07:40:37;63.90;;;39.93;;
6878;SDS011;3478;51.462;7.338;2022-07-30T07:45:41;67.87;;;41.90;;
6878;SDS011;3478;51.462;7.338;2022-07-30T07:50:44;60.97;;;42.27;;
6878;SDS011;3478;51.462;7.338;2022-07-30T07:55:46;69.40;;;44.33;;
6878;SDS011;3478;51.462;7.338;2022-07-30T08:00:49;65.10;;;41.40;;
6878;SDS011;3478;51.462;7.338;2022-07-30T08:05:51;63.77;;;39.53;;
6878;SDS011;3478;51.462;7.338;2022-07-30T08:10:53;54.53;;;36.57;;
6878;SDS011;3478;51.462;7.338;2022-07-30T08:15:57;47.20;;;32.87;;
6878;SDS011;3478;51.462;7.338;2022-07-30T08:20:59;43.90;;;30.13;;
6878;SDS011;3478;51.462;7.338;2022-07-30T08:26:00;42.70;;;29.90;;
6878;SDS011;3478;51.462;7.338;2022-07-30T08:31:04;43.70;;;31.40;;
6878;SDS011;3478;51.462;7.338;2022-07-30T08:36:06;64.20;;;36.30;;
6878;SDS011;3478;51.462;7.338;2022-07-30T08:41:08;64.50;;;34.60;;
6878;SDS011;3478;51.462;7.338;2022-07-30T08:46:12;61.53;;;34.77;;
6878;SDS011;3478;51.462;7.338;2022-07-30T08:51:18;59.47;;;32.70;;
6878;SDS011;3478;51.462;7.338;2022-07-30T08:56:20;64.70;;;34.80;;
6878;SDS011;3478;51.462;7.338;2022-07-30T09:01:24;65.93;;;34.80;;
6878;SDS011;3478;51.462;7.338;2022-07-30T09:06:26;58.20;;;35.10;;
6878;SDS011;3478;51.462;7.338;2022-07-30T09:11:28;64.23;;;35.20;;
6878;SDS011;3478;51.462;7.338;2022-07-30T09:16:32;69.10;;;34.83;;
6878;SDS011;3478;51.462;7.338;2022-07-30T09:21:33;57.07;;;34.23;;
6878;SDS011;3478;51.462;7.338;2022-07-30T09:26:50;59.27;;;31.10;;
6878;SDS011;3478;51.462;7.338;2022-07-30T09:31:56;48.77;;;27.77;;
6878;SDS011;3478;51.462;7.338;2022-07-30T09:37:00;40.13;;;24.40;;
6878;SDS011;3478;51.462;7.338;2022-07-30T09:42:03;37.90;;;22.10;;
6878;SDS011;3478;51.462;7.338;2022-07-30T09:47:29;32.67;;;20.60;;
6878;SDS011;3478;51.462;7.338;2022-07-30T09:52:32;36.57;;;22.70;;
6878;SDS011;3478;51.462;7.338;2022-07-30T09:57:34;33.50;;;20.33;;
6878;SDS011;3478;51.462;7.338;2022-07-30T10:02:37;28.97;;;20.00;;
6878;SDS011;3478;51.462;7.338;2022-07-30T10:07:45;29.60;;;18.40;;
6878;SDS011;3478;51.462;7.338;2022-07-30T10:12:50;30.70;;;21.43;;
6878;SDS011;3478;51.462;7.338;2022-07-30T10:17:57;27.43;;;21.57;;
6878;SDS011;3478;51.462;7.338;2022-07-30T10:23:01;26.07;;;19.93;;
6878;SDS011;3478;51.462;7.338;2022-07-30T10:28:05;21.83;;;19.00;;
6878;SDS011;3478;51.462;7.338;2022-07-30T10:33:09;17.83;;;14.90;;
6878;SDS011;3478;51.462;7.338;2022-07-30T10:38:11;18.10;;;14.97;;
6878;SDS011;3478;51.462;7.338;2022-07-30T10:49:04;13.17;;;11.80;;
6878;SDS011;3478;51.462;7.338;2022-07-30T11:05:22;11.27;;;8.93;;
6878;SDS011;3478;51.462;7.338;2022-07-30T11:10:32;8.73;;;7.00;;
6878;SDS011;3478;51.462;7.338;2022-07-30T11:15:51;8.70;;;6.83;;
6878;SDS011;3478;51.462;7.338;2022-07-30T11:21:16;10.33;;;7.03;;
6878;SDS011;3478;51.462;7.338;2022-07-30T11:31:50;7.30;;;6.80;;
6878;SDS011;3478;51.462;7.338;2022-07-30T11:37:03;6.80;;;6.47;;
6878;SDS011;3478;51.462;7.338;2022-07-30T11:42:22;7.53;;;6.90;;
6878;SDS011;3478;51.462;7.338;2022-07-30T11:47:26;6.50;;;6.00;;
6878;SDS011;3478;51.462;7.338;2022-07-30T11:52:29;7.27;;;6.60;;
6878;SDS011;3478;51.462;7.338;2022-07-30T11:57:41;6.80;;;6.30;;
6878;SDS011;3478;51.462;7.338;2022-07-30T12:02:43;7.20;;;6.27;;
6878;SDS011;3478;51.462;7.338;2022-07-30T12:07:47;5.00;;;4.60;;
6878;SDS011;3478;51.462;7.338;2022-07-30T12:12:48;4.63;;;4.30;;
6878;SDS011;3478;51.462;7.338;2022-07-30T12:17:50;4.43;;;4.03;;
6878;SDS011;3478;51.462;7.338;2022-07-30T12:22:54;5.77;;;3.43;;
6878;SDS011;3478;51.462;7.338;2022-07-30T12:27:56;4.47;;;3.33;;
6878;SDS011;3478;51.462;7.338;2022-07-30T12:32:58;5.73;;;2.90;;
6878;SDS011;3478;51.462;7.338;2022-07-30T12:38:03;4.13;;;2.73;;
6878;SDS011;3478;51.462;7.338;2022-07-30T12:43:05;3.43;;;2.50;;
6878;SDS011;3478;51.462;7.338;2022-07-30T12:48:08;2.13;;;1.93;;
6878;SDS011;3478;51.462;7.338;2022-07-30T12:53:12;1.97;;;1.63;;
6878;SDS011;3478;51.462;7.338;2022-07-30T12:58:14;4.07;;;1.80;;
6878;SDS011;3478;51.462;7.338;2022-07-30T13:03:19;2.93;;;1.90;;
6878;SDS011;3478;51.462;7.338;2022-07-30T13:13:46;1.47;;;1.37;;
6878;SDS011;3478;51.462;7.338;2022-07-30T13:18:49;1.53;;;1.43;;
6878;SDS011;3478;51.462;7.338;2022-07-30T13:23:52;1.50;;;0.80;;
6878;SDS011;3478;51.462;7.338;2022-07-30T13:28:54;6.33;;;1.20;;
6878;SDS011;3478;51.462;7.338;2022-07-30T13:33:56;3.70;;;1.97;;
6878;SDS011;3478;51.462;7.338;2022-07-30T13:39:00;3.20;;;1.40;;
6878;SDS011;3478;51.462;7.338;2022-07-30T13:44:02;2.90;;;1.40;;
6878;SDS011;3478;51.462;7.338;2022-07-30T13:49:04;3.37;;;1.27;;
6878;SDS011;3478;51.462;7.338;2022-07-30T13:54:08;2.23;;;1.23;;
6878;SDS011;3478;51.462;7.338;2022-07-30T13:59:10;2.93;;;1.67;;
6878;SDS011;3478;51.462;7.338;2022-07-30T14:04:11;2.97;;;1.37;;
6878;SDS011;3478;51.462;7.338;2022-07-30T14:09:15;2.57;;;1.17;;
6878;SDS011;3478;51.462;7.338;2022-07-30T14:14:17;5.00;;;1.20;;
6878;SDS011;3478;51.462;7.338;2022-07-30T14:19:20;1.40;;;0.90;;
6878;SDS011;3478;51.462;7.338;2022-07-30T14:24:24;1.20;;;1.10;;
6878;SDS011;3478;51.462;7.338;2022-07-30T14:29:26;2.17;;;1.20;;
6878;SDS011;3478;51.462;7.338;2022-07-30T14:34:28;1.60;;;1.07;;
6878;SDS011;3478;51.462;7.338;2022-07-30T14:39:31;3.10;;;1.13;;
6878;SDS011;3478;51.462;7.338;2022-07-30T14:44:33;2.70;;;0.93;;
6878;SDS011;3478;51.462;7.338;2022-07-30T14:49:35;2.70;;;0.90;;
6878;SDS011;3478;51.462;7.338;2022-07-30T14:54:38;1.47;;;0.87;;
6878;SDS011;3478;51.462;7.338;2022-07-30T14:59:40;2.70;;;1.27;;
6878;SDS011;3478;51.462;7.338;2022-07-30T15:04:42;2.20;;;1.20;;
6878;SDS011;3478;51.462;7.338;2022-07-30T15:09:47;1.57;;;1.40;;
6878;SDS011;3478;51.462;7.338;2022-07-30T15:14:49;1.80;;;1.10;;
6878;SDS011;3478;51.462;7.338;2022-07-30T15:19:51;2.20;;;1.00;;
6878;SDS011;3478;51.462;7.338;2022-07-30T15:24:54;2.17;;;1.10;;
6878;SDS011;3478;51.462;7.338;2022-07-30T15:29:56;1.83;;;0.97;;
6878;SDS011;3478;51.462;7.338;2022-07-30T15:34:58;1.00;;;0.93;;
6878;SDS011;3478;51.462;7.338;2022-07-30T15:40:01;1.20;;;0.83;;
6878;SDS011;3478;51.462;7.338;2022-07-30T15:45:04;1.60;;;1.50;;
6878;SDS011;3478;51.462;7.338;2022-07-30T15:50:07;1.33;;;0.93;;
6878;SDS011;3478;51.462;7.338;2022-07-30T15:55:11;2.07;;;1.03;;
6878;SDS011;3478;51.462;7.338;2022-07-30T16:00:13;1.43;;;0.90;;
6878;SDS011;3478;51.462;7.338;2022-07-30T16:05:15;1.50;;;1.03;;
6878;SDS011;3478;51.462;7.338;2022-07-30T16:10:19;1.50;;;1.00;;
6878;SDS011;3478;51.462;7.338;2022-07-30T16:15:20;1.20;;;1.10;;
6878;SDS011;3478;51.462;7.338;2022-07-30T16:20:22;1.73;;;1.23;;
6878;SDS011;3478;51.462;7.338;2022-07-30T16:25:26;1.37;;;1.27;;
6878;SDS011;3478;51.462;7.338;2022-07-30T16:30:27;1.37;;;1.27;;
6878;SDS011;3478;51.462;7.338;2022-07-30T16:35:29;1.50;;;1.40;;
6878;SDS011;3478;51.462;7.338;2022-07-30T16:40:33;3.00;;;1.43;;
6878;SDS011;3478;51.462;7.338;2022-07-30T16:45:35;1.67;;;1.10;;
6878;SDS011;3478;51.462;7.338;2022-07-30T16:50:37;1.37;;;1.00;;
6878;SDS011;3478;51.462;7.338;2022-07-30T16:55:41;1.50;;;1.30;;
6878;SDS011;3478;51.462;7.338;2022-07-30T17:00:43;1.27;;;1.10;;
6878;SDS011;3478;51.462;7.338;2022-07-30T17:05:45;1.00;;;0.87;;
6878;SDS011;3478;51.462;7.338;2022-07-30T17:10:48;2.03;;;1.13;;
6878;SDS011;3478;51.462;7.338;2022-07-30T17:15:50;1.80;;;0.77;;
6878;SDS011;3478;51.462;7.338;2022-07-30T17:20:52;0.80;;;0.70;;
6878;SDS011;3478;51.462;7.338;2022-07-30T17:25:55;2.33;;;1.07;;
6878;SDS011;3478;51.462;7.338;2022-07-30T17:30:57;1.10;;;1.00;;
6878;SDS011;3478;51.462;7.338;2022-07-30T17:35:59;2.60;;;0.87;;
6878;SDS011;3478;51.462;7.338;2022-07-30T17:41:02;0.90;;;0.70;;
6878;SDS011;3478;51.462;7.338;2022-07-30T17:46:04;1.40;;;1.00;;
6878;SDS011;3478;51.462;7.338;2022-07-30T17:51:06;2.80;;;0.70;;
6878;SDS011;3478;51.462;7.338;2022-07-30T17:56:10;4.00;;;1.87;;
6878;SDS011;3478;51.462;7.338;2022-07-30T18:01:12;1.20;;;1.10;;
6878;SDS011;3478;51.462;7.338;2022-07-30T18:06:14;3.20;;;1.40;;
6878;SDS011;3478;51.462;7.338;2022-07-30T18:11:18;1.00;;;0.77;;
6878;SDS011;3478;51.462;7.338;2022-07-30T18:16:20;2.10;;;1.53;;
6878;SDS011;3478;51.462;7.338;2022-07-30T18:21:21;1.47;;;1.07;;
6878;SDS011;3478;51.462;7.338;2022-07-30T18:26:25;1.50;;;1.00;;
6878;SDS011;3478;51.462;7.338;2022-07-30T18:31:27;3.10;;;1.00;;
6878;SDS011;3478;51.462;7.338;2022-07-30T18:36:29;1.10;;;1.00;;
6878;SDS011;3478;51.462;7.338;2022-07-30T18:41:32;1.27;;;1.10;;
6878;SDS011;3478;51.462;7.338;2022-07-30T18:46:34;2.03;;;1.23;;
6878;SDS011;3478;51.462;7.338;2022-07-30T18:51:36;4.03;;;1.70;;
6878;SDS011;3478;51.462;7.338;2022-07-30T18:56:39;2.30;;;1.27;;
6878;SDS011;3478;51.462;7.338;2022-07-30T19:01:41;2.40;;;1.50;;
6878;SDS011;3478;51.462;7.338;2022-07-30T19:06:43;4.50;;;1.20;;
6878;SDS011;3478;51.462;7.338;2022-07-30T19:11:47;1.50;;;1.27;;
6878;SDS011;3478;51.462;7.338;2022-07-30T19:16:49;2.13;;;1.17;;
6878;SDS011;3478;51.462;7.338;2022-07-30T19:21:51;1.67;;;1.27;;
6878;SDS011;3478;51.462;7.338;2022-07-30T19:26:54;2.60;;;1.53;;
6878;SDS011;3478;51.462;7.338;2022-07-30T19:31:56;1.57;;;1.47;;
6878;SDS011;3478;51.462;7.338;2022-07-30T19:36:58;2.97;;;1.00;;
6878;SDS011;3478;51.462;7.338;2022-07-30T19:42:02;1.33;;;0.80;;
6878;SDS011;3478;51.462;7.338;2022-07-30T19:47:04;5.73;;;0.90;;
6878;SDS011;3478;51.462;7.338;2022-07-30T19:52:06;1.77;;;1.30;;
6878;SDS011;3478;51.462;7.338;2022-07-30T19:57:11;2.33;;;1.27;;
6878;SDS011;3478;51.462;7.338;2022-07-30T20:02:13;1.97;;;1.43;;
6878;SDS011;3478;51.462;7.338;2022-07-30T20:07:14;1.27;;;1.13;;
6878;SDS011;3478;51.462;7.338;2022-07-30T20:12:18;1.80;;;1.37;;
6878;SDS011;3478;51.462;7.338;2022-07-30T20:17:20;0.90;;;0.90;;
6878;SDS011;3478;51.462;7.338;2022-07-30T20:22:22;1.37;;;1.27;;
6878;SDS011;3478;51.462;7.338;2022-07-30T20:27:26;2.57;;;1.33;;
6878;SDS011;3478;51.462;7.338;2022-07-30T20:32:28;7.87;;;2.10;;
6878;SDS011;3478;51.462;7.338;2022-07-30T20:37:30;4.50;;;1.37;;
6878;SDS011;3478;51.462;7.338;2022-07-30T20:42:33;9.03;;;2.00;;
6878;SDS011;3478;51.462;7.338;2022-07-30T20:47:37;5.20;;;2.10;;
6878;SDS011;3478;51.462;7.338;2022-07-30T20:52:39;2.90;;;1.60;;
6878;SDS011;3478;51.462;7.338;2022-07-30T20:57:43;1.60;;;1.50;;
6878;SDS011;3478;51.462;7.338;2022-07-30T21:02:45;3.57;;;1.27;;
6878;SDS011;3478;51.462;7.338;2022-07-30T21:07:47;2.03;;;0.87;;
6878;SDS011;3478;51.462;7.338;2022-07-30T21:12:50;1.90;;;1.13;;
6878;SDS011;3478;51.462;7.338;2022-07-30T21:17:52;2.93;;;1.33;;
6878;SDS011;3478;51.462;7.338;2022-07-30T21:22:54;4.67;;;1.20;;
6878;SDS011;3478;51.462;7.338;2022-07-30T21:28:03;4.10;;;1.43;;
6878;SDS011;3478;51.462;7.338;2022-07-30T21:33:05;4.10;;;1.27;;
6878;SDS011;3478;51.462;7.338;2022-07-30T21:38:07;2.77;;;1.50;;
6878;SDS011;3478;51.462;7.338;2022-07-30T21:43:10;1.70;;;1.30;;
6878;SDS011;3478;51.462;7.338;2022-07-30T21:48:12;4.17;;;1.63;;
6878;SDS011;3478;51.462;7.338;2022-07-30T21:53:14;5.33;;;1.47;;
6878;SDS011;3478;51.462;7.338;2022-07-30T21:58:17;3.90;;;1.67;;
6878;SDS011;3478;51.462;7.338;2022-07-30T22:03:19;3.60;;;1.10;;
6878;SDS011;3478;51.462;7.338;2022-07-30T22:08:21;2.83;;;1.73;;
6878;SDS011;3478;51.462;7.338;2022-07-30T22:13:26;3.93;;;1.27;;
6878;SDS011;3478;51.462;7.338;2022-07-30T22:18:27;4.20;;;1.60;;
6878;SDS011;3478;51.462;7.338;2022-07-30T22:23:29;6.43;;;1.30;;
6878;SDS011;3478;51.462;7.338;2022-07-30T22:28:32;1.60;;;1.27;;
6878;SDS011;3478;51.462;7.338;2022-07-30T22:33:34;2.10;;;1.00;;
6878;SDS011;3478;51.462;7.338;2022-07-30T22:38:36;6.40;;;1.30;;
6878;SDS011;3478;51.462;7.338;2022-07-30T22:43:39;7.00;;;1.43;;
6878;SDS011;3478;51.462;7.338;2022-07-30T22:48:41;1.97;;;1.70;;
6878;SDS011;3478;51.462;7.338;2022-07-30T22:53:43;1.87;;;1.30;;
6878;SDS011;3478;51.462;7.338;2022-07-30T22:58:46;5.50;;;2.20;;
6878;SDS011;3478;51.462;7.338;2022-07-30T23:03:48;2.33;;;1.43;;
6878;SDS011;3478;51.462;7.338;2022-07-30T23:08:50;4.33;;;1.60;;
6878;SDS011;3478;51.462;7.338;2022-07-30T23:13:53;1.50;;;1.17;;
6878;SDS011;3478;51.462;7.338;2022-07-30T23:18:58;5.00;;;0.97;;
6878;SDS011;3478;51.462;7.338;2022-07-30T23:24:00;2.70;;;1.20;;
6878;SDS011;3478;51.462;7.338;2022-07-30T23:29:03;1.67;;;1.57;;
6878;SDS011;3478;51.462;7.338;2022-07-30T23:34:05;2.50;;;1.60;;
6878;SDS011;3478;51.462;7.338;2022-07-30T23:39:07;2.17;;;1.17;;
6878;SDS011;3478;51.462;7.338;2022-07-30T23:44:10;1.93;;;1.13;;
6878;SDS011;3478;51.462;7.338;2022-07-30T23:49:12;2.27;;;1.87;;
6878;SDS011;3478;51.462;7.338;2022-07-30T23:54:14;1.33;;;1.10;;
6878;SDS011;3478;51.462;7.338;2022-07-30T23:59:17;1.60;;;1.00;;
